This is the latest recevied weather packets stored in our database for station/object PY2RMF-10. If no packets are shown the sender has not sent any weather packets the latest 10 day(s).
| Time | Temp. | Humidity | Pressure | Rain* | Wind** | Luminosity | Snow |
|---|---|---|---|---|---|---|---|
| 1777405013 | 27.78° C | 89% | 1002 hPa | - | - | - | - |
| 1777403214 | 28.89° C | 81% | 1001 hPa | - | - | - | - |
| 1777401414 | 30.56° C | 69% | 1001 hPa | - | - | - | - |
| 1777399613 | 30.56° C | 70% | 1001 hPa | - | - | - | - |
| 1777397813 | 31.11° C | 64% | 1001 hPa | - | - | - | - |
| 1777396013 | 31.11° C | 51% | 1002 hPa | - | - | - | - |
| 1777394214 | 32.78° C | 47% | 1002 hPa | - | - | - | - |
| 1777392414 | 34.44° C | 44% | 1002 hPa | - | - | - | - |
| 1777390613 | 35.56° C | 42% | 1002 hPa | - | - | - | - |
| 1777388813 | 34.44° C | 52% | 1003 hPa | - | - | - | - |
| 1777387013 | 31.11° C | 75% | 1003 hPa | - | - | - | - |
| 1777385213 | 29.44° C | 84% | 1004 hPa | - | - | - | - |
| 1777383414 | 27.78° C | 93% | 1004 hPa | - | - | - | - |
| 1777381613 | 27.22° C | 100% | 1005 hPa | - | - | - | - |
| 1777379813 | 25.56° C | 100% | 1005 hPa | - | - | - | - |
| 1777378013 | 24.44° C | 100% | 1004 hPa | - | - | - | - |
| 1777376213 | 23.89° C | 100% | 1004 hPa | - | - | - | - |
| 1777374414 | 23.33° C | 100% | 1004 hPa | - | - | - | - |
| 1777372614 | 21.67° C | 100% | 1004 hPa | - | - | - | - |
| 1777370813 | 21.67° C | 100% | 1003 hPa | - | - | - | - |
| 1777369013 | 21.67° C | 100% | 1003 hPa | - | - | - | - |
| 1777367214 | 21.67° C | 100% | 1003 hPa | - | - | - | - |
| 1777365413 | 21.67° C | 100% | 1003 hPa | - | - | - | - |
| 1777363614 | 21.67° C | 100% | 1002 hPa | - | - | - | - |
| 1777361814 | 21.11° C | 100% | 1002 hPa | - | - | - | - |
* Rain since midnight (hover to see other rain measurements)
** Current wind speed in m/s (hover to see current wind gust speed)